sensor_id;sensor_type;location;lat;lon;timestamp;P1;durP1;ratioP1;P2;durP2;ratioP2
49730;SDS011;35622;52.008;5.426;2023-01-16T00:00:21;4.32;;;1.92;;
49730;SDS011;35622;52.008;5.426;2023-01-16T00:02:46;4.57;;;1.88;;
49730;SDS011;35622;52.008;5.426;2023-01-16T00:05:12;3.35;;;2.05;;
49730;SDS011;35622;52.008;5.426;2023-01-16T00:07:37;3.38;;;2.00;;
49730;SDS011;35622;52.008;5.426;2023-01-16T00:10:03;4.28;;;2.10;;
49730;SDS011;35622;52.008;5.426;2023-01-16T00:12:29;5.18;;;2.80;;
49730;SDS011;35622;52.008;5.426;2023-01-16T00:14:55;4.82;;;2.42;;
49730;SDS011;35622;52.008;5.426;2023-01-16T00:17:21;4.90;;;2.92;;
49730;SDS011;35622;52.008;5.426;2023-01-16T00:19:47;7.35;;;2.92;;
49730;SDS011;35622;52.008;5.426;2023-01-16T00:22:12;6.15;;;2.90;;
49730;SDS011;35622;52.008;5.426;2023-01-16T00:24:38;4.63;;;3.10;;
49730;SDS011;35622;52.008;5.426;2023-01-16T00:27:03;4.70;;;3.20;;
49730;SDS011;35622;52.008;5.426;2023-01-16T00:29:29;7.55;;;3.90;;
49730;SDS011;35622;52.008;5.426;2023-01-16T00:31:54;6.60;;;3.17;;
49730;SDS011;35622;52.008;5.426;2023-01-16T00:34:20;5.13;;;3.33;;
49730;SDS011;35622;52.008;5.426;2023-01-16T00:36:45;7.20;;;3.07;;
49730;SDS011;35622;52.008;5.426;2023-01-16T00:39:11;5.70;;;3.33;;
49730;SDS011;35622;52.008;5.426;2023-01-16T00:41:36;5.13;;;3.47;;
49730;SDS011;35622;52.008;5.426;2023-01-16T00:44:02;7.13;;;3.45;;
49730;SDS011;35622;52.008;5.426;2023-01-16T00:46:28;7.15;;;4.75;;
49730;SDS011;35622;52.008;5.426;2023-01-16T00:48:54;5.60;;;4.20;;
49730;SDS011;35622;52.008;5.426;2023-01-16T00:51:21;7.80;;;4.90;;
49730;SDS011;35622;52.008;5.426;2023-01-16T00:53:46;7.68;;;5.60;;
49730;SDS011;35622;52.008;5.426;2023-01-16T00:56:12;8.27;;;5.65;;
49730;SDS011;35622;52.008;5.426;2023-01-16T00:58:38;8.88;;;6.72;;
49730;SDS011;35622;52.008;5.426;2023-01-16T01:01:03;9.33;;;6.73;;
49730;SDS011;35622;52.008;5.426;2023-01-16T01:03:29;10.93;;;7.65;;
49730;SDS011;35622;52.008;5.426;2023-01-16T01:05:55;12.05;;;8.35;;
49730;SDS011;35622;52.008;5.426;2023-01-16T01:08:20;10.63;;;7.77;;
49730;SDS011;35622;52.008;5.426;2023-01-16T01:10:46;11.32;;;8.30;;
49730;SDS011;35622;52.008;5.426;2023-01-16T01:13:11;13.95;;;9.13;;
49730;SDS011;35622;52.008;5.426;2023-01-16T01:15:37;13.60;;;9.55;;
49730;SDS011;35622;52.008;5.426;2023-01-16T01:18:03;14.63;;;9.57;;
49730;SDS011;35622;52.008;5.426;2023-01-16T01:20:29;14.23;;;9.90;;
49730;SDS011;35622;52.008;5.426;2023-01-16T01:22:54;13.18;;;9.65;;
49730;SDS011;35622;52.008;5.426;2023-01-16T01:25:20;12.43;;;9.30;;
49730;SDS011;35622;52.008;5.426;2023-01-16T01:27:45;13.93;;;9.20;;
49730;SDS011;35622;52.008;5.426;2023-01-16T01:30:11;11.97;;;8.97;;
49730;SDS011;35622;52.008;5.426;2023-01-16T01:32:37;13.43;;;9.07;;
49730;SDS011;35622;52.008;5.426;2023-01-16T01:35:03;13.87;;;9.33;;
49730;SDS011;35622;52.008;5.426;2023-01-16T01:37:30;16.30;;;9.20;;
49730;SDS011;35622;52.008;5.426;2023-01-16T01:39:56;12.67;;;8.30;;
49730;SDS011;35622;52.008;5.426;2023-01-16T01:42:21;13.65;;;9.23;;
49730;SDS011;35622;52.008;5.426;2023-01-16T01:45:09;14.13;;;8.43;;
49730;SDS011;35622;52.008;5.426;2023-01-16T01:47:40;13.40;;;8.57;;
49730;SDS011;35622;52.008;5.426;2023-01-16T01:50:14;12.32;;;8.73;;
49730;SDS011;35622;52.008;5.426;2023-01-16T01:52:47;10.82;;;7.10;;
49730;SDS011;35622;52.008;5.426;2023-01-16T01:55:13;10.40;;;7.40;;
49730;SDS011;35622;52.008;5.426;2023-01-16T01:57:42;9.68;;;6.80;;
49730;SDS011;35622;52.008;5.426;2023-01-16T02:00:14;14.25;;;6.72;;
49730;SDS011;35622;52.008;5.426;2023-01-16T02:02:48;9.83;;;6.43;;
49730;SDS011;35622;52.008;5.426;2023-01-16T02:05:23;9.43;;;5.90;;
49730;SDS011;35622;52.008;5.426;2023-01-16T02:07:52;9.20;;;5.53;;
49730;SDS011;35622;52.008;5.426;2023-01-16T02:10:25;8.20;;;4.37;;
49730;SDS011;35622;52.008;5.426;2023-01-16T02:12:57;5.53;;;4.10;;
49730;SDS011;35622;52.008;5.426;2023-01-16T02:15:23;9.30;;;4.60;;
49730;SDS011;35622;52.008;5.426;2023-01-16T02:17:49;7.40;;;4.60;;
49730;SDS011;35622;52.008;5.426;2023-01-16T02:20:37;9.13;;;4.43;;
49730;SDS011;35622;52.008;5.426;2023-01-16T02:26:14;9.20;;;4.10;;
49730;SDS011;35622;52.008;5.426;2023-01-16T02:29:08;8.33;;;3.93;;
49730;SDS011;35622;52.008;5.426;2023-01-16T02:48:06;6.20;;;3.73;;
49730;SDS011;35622;52.008;5.426;2023-01-16T02:50:41;8.63;;;3.53;;
49730;SDS011;35622;52.008;5.426;2023-01-16T02:53:17;7.77;;;3.50;;
49730;SDS011;35622;52.008;5.426;2023-01-16T02:55:53;6.97;;;3.43;;
49730;SDS011;35622;52.008;5.426;2023-01-16T02:58:27;6.50;;;3.00;;
49730;SDS011;35622;52.008;5.426;2023-01-16T03:00:57;5.77;;;2.30;;
49730;SDS011;35622;52.008;5.426;2023-01-16T03:06:17;3.37;;;2.20;;
49730;SDS011;35622;52.008;5.426;2023-01-16T03:11:27;5.27;;;1.93;;
49730;SDS011;35622;52.008;5.426;2023-01-16T03:13:57;6.00;;;2.03;;
49730;SDS011;35622;52.008;5.426;2023-01-16T03:19:12;5.10;;;2.00;;
49730;SDS011;35622;52.008;5.426;2023-01-16T03:27:14;7.57;;;1.87;;
49730;SDS011;35622;52.008;5.426;2023-01-16T03:29:46;5.67;;;1.83;;
49730;SDS011;35622;52.008;5.426;2023-01-16T03:32:23;7.73;;;1.60;;
49730;SDS011;35622;52.008;5.426;2023-01-16T03:35:05;5.40;;;1.60;;
49730;SDS011;35622;52.008;5.426;2023-01-16T03:37:47;7.53;;;1.70;;
49730;SDS011;35622;52.008;5.426;2023-01-16T03:40:22;4.63;;;1.70;;
49730;SDS011;35622;52.008;5.426;2023-01-16T03:43:01;4.73;;;1.40;;
49730;SDS011;35622;52.008;5.426;2023-01-16T03:45:55;5.77;;;1.70;;
49730;SDS011;35622;52.008;5.426;2023-01-16T03:48:22;10.70;;;1.87;;
49730;SDS011;35622;52.008;5.426;2023-01-16T03:51:07;3.67;;;1.50;;
49730;SDS011;35622;52.008;5.426;2023-01-16T03:53:38;4.60;;;1.50;;
49730;SDS011;35622;52.008;5.426;2023-01-16T03:56:14;5.53;;;1.67;;
49730;SDS011;35622;52.008;5.426;2023-01-16T03:58:46;6.53;;;1.50;;
49730;SDS011;35622;52.008;5.426;2023-01-16T04:01:36;5.63;;;1.40;;
49730;SDS011;35622;52.008;5.426;2023-01-16T04:04:06;4.27;;;1.63;;
49730;SDS011;35622;52.008;5.426;2023-01-16T04:06:48;5.53;;;1.50;;
49730;SDS011;35622;52.008;5.426;2023-01-16T04:09:34;5.47;;;1.50;;
49730;SDS011;35622;52.008;5.426;2023-01-16T04:12:07;4.60;;;1.40;;
49730;SDS011;35622;52.008;5.426;2023-01-16T04:14:35;7.23;;;2.10;;
49730;SDS011;35622;52.008;5.426;2023-01-16T04:17:03;8.33;;;2.00;;
49730;SDS011;35622;52.008;5.426;2023-01-16T04:19:30;5.93;;;1.77;;
49730;SDS011;35622;52.008;5.426;2023-01-16T04:21:58;5.67;;;1.90;;
49730;SDS011;35622;52.008;5.426;2023-01-16T04:24:23;5.03;;;1.60;;
49730;SDS011;35622;52.008;5.426;2023-01-16T04:26:49;7.13;;;1.70;;
49730;SDS011;35622;52.008;5.426;2023-01-16T04:29:16;6.13;;;1.70;;
49730;SDS011;35622;52.008;5.426;2023-01-16T04:31:42;4.03;;;1.40;;
49730;SDS011;35622;52.008;5.426;2023-01-16T04:34:08;5.20;;;1.23;;
49730;SDS011;35622;52.008;5.426;2023-01-16T04:36:33;7.10;;;1.37;;
49730;SDS011;35622;52.008;5.426;2023-01-16T04:38:59;5.33;;;1.60;;
49730;SDS011;35622;52.008;5.426;2023-01-16T04:41:24;5.13;;;1.70;;
49730;SDS011;35622;52.008;5.426;2023-01-16T04:44:03;5.97;;;1.30;;
49730;SDS011;35622;52.008;5.426;2023-01-16T04:46:30;6.23;;;1.20;;
49730;SDS011;35622;52.008;5.426;2023-01-16T04:48:56;4.17;;;1.27;;
49730;SDS011;35622;52.008;5.426;2023-01-16T04:51:22;7.23;;;1.53;;
49730;SDS011;35622;52.008;5.426;2023-01-16T04:53:47;4.67;;;1.63;;
49730;SDS011;35622;52.008;5.426;2023-01-16T04:56:13;4.80;;;1.60;;
49730;SDS011;35622;52.008;5.426;2023-01-16T04:58:39;4.93;;;1.30;;
49730;SDS011;35622;52.008;5.426;2023-01-16T05:01:04;8.17;;;1.40;;
49730;SDS011;35622;52.008;5.426;2023-01-16T05:03:30;10.40;;;1.70;;
49730;SDS011;35622;52.008;5.426;2023-01-16T05:05:55;8.10;;;1.50;;
49730;SDS011;35622;52.008;5.426;2023-01-16T05:08:21;6.37;;;1.20;;
49730;SDS011;35622;52.008;5.426;2023-01-16T05:10:50;4.10;;;1.50;;
49730;SDS011;35622;52.008;5.426;2023-01-16T05:13:16;7.70;;;1.50;;
49730;SDS011;35622;52.008;5.426;2023-01-16T05:15:42;6.87;;;1.40;;
49730;SDS011;35622;52.008;5.426;2023-01-16T05:18:09;5.87;;;1.50;;
49730;SDS011;35622;52.008;5.426;2023-01-16T05:20:36;5.73;;;1.60;;
49730;SDS011;35622;52.008;5.426;2023-01-16T05:23:02;3.37;;;1.30;;
49730;SDS011;35622;52.008;5.426;2023-01-16T05:25:28;2.60;;;1.13;;
49730;SDS011;35622;52.008;5.426;2023-01-16T05:27:53;8.17;;;1.60;;
49730;SDS011;35622;52.008;5.426;2023-01-16T05:30:19;5.40;;;1.30;;
49730;SDS011;35622;52.008;5.426;2023-01-16T05:32:45;6.20;;;1.60;;
49730;SDS011;35622;52.008;5.426;2023-01-16T05:35:10;7.73;;;1.40;;
49730;SDS011;35622;52.008;5.426;2023-01-16T05:37:36;5.73;;;1.30;;
49730;SDS011;35622;52.008;5.426;2023-01-16T05:40:02;3.77;;;1.27;;
49730;SDS011;35622;52.008;5.426;2023-01-16T05:42:27;7.37;;;1.40;;
49730;SDS011;35622;52.008;5.426;2023-01-16T05:44:53;5.33;;;1.47;;
49730;SDS011;35622;52.008;5.426;2023-01-16T05:47:19;5.07;;;1.30;;
49730;SDS011;35622;52.008;5.426;2023-01-16T05:49:45;5.23;;;1.40;;
49730;SDS011;35622;52.008;5.426;2023-01-16T05:52:11;7.00;;;1.20;;
49730;SDS011;35622;52.008;5.426;2023-01-16T05:54:36;7.30;;;1.40;;
49730;SDS011;35622;52.008;5.426;2023-01-16T05:57:02;6.27;;;1.47;;
49730;SDS011;35622;52.008;5.426;2023-01-16T05:59:28;4.70;;;1.07;;
49730;SDS011;35622;52.008;5.426;2023-01-16T06:01:53;6.47;;;1.53;;
49730;SDS011;35622;52.008;5.426;2023-01-16T06:04:19;3.60;;;1.20;;
49730;SDS011;35622;52.008;5.426;2023-01-16T06:06:48;5.17;;;1.37;;
49730;SDS011;35622;52.008;5.426;2023-01-16T06:09:13;4.77;;;1.40;;
49730;SDS011;35622;52.008;5.426;2023-01-16T06:11:39;5.37;;;1.20;;
49730;SDS011;35622;52.008;5.426;2023-01-16T06:14:05;6.37;;;1.40;;
49730;SDS011;35622;52.008;5.426;2023-01-16T06:16:31;4.60;;;1.20;;
49730;SDS011;35622;52.008;5.426;2023-01-16T06:18:57;4.40;;;1.60;;
49730;SDS011;35622;52.008;5.426;2023-01-16T06:21:23;5.90;;;1.30;;
49730;SDS011;35622;52.008;5.426;2023-01-16T06:23:49;6.80;;;2.10;;
49730;SDS011;35622;52.008;5.426;2023-01-16T06:26:14;5.00;;;1.20;;
49730;SDS011;35622;52.008;5.426;2023-01-16T06:28:40;3.83;;;1.40;;
49730;SDS011;35622;52.008;5.426;2023-01-16T06:31:05;4.40;;;1.17;;
49730;SDS011;35622;52.008;5.426;2023-01-16T06:33:32;5.73;;;1.50;;
49730;SDS011;35622;52.008;5.426;2023-01-16T06:35:57;6.33;;;1.33;;
49730;SDS011;35622;52.008;5.426;2023-01-16T06:38:23;6.53;;;1.80;;
49730;SDS011;35622;52.008;5.426;2023-01-16T06:40:49;4.27;;;1.30;;
49730;SDS011;35622;52.008;5.426;2023-01-16T06:43:14;3.03;;;1.00;;
49730;SDS011;35622;52.008;5.426;2023-01-16T06:45:41;4.77;;;1.27;;
49730;SDS011;35622;52.008;5.426;2023-01-16T06:48:07;3.00;;;0.97;;
49730;SDS011;35622;52.008;5.426;2023-01-16T06:50:33;3.47;;;0.80;;
49730;SDS011;35622;52.008;5.426;2023-01-16T06:52:58;7.63;;;1.10;;
49730;SDS011;35622;52.008;5.426;2023-01-16T06:55:24;4.17;;;1.10;;
49730;SDS011;35622;52.008;5.426;2023-01-16T06:57:50;3.67;;;0.97;;
49730;SDS011;35622;52.008;5.426;2023-01-16T07:00:15;5.57;;;0.90;;
49730;SDS011;35622;52.008;5.426;2023-01-16T07:02:41;6.53;;;1.10;;
49730;SDS011;35622;52.008;5.426;2023-01-16T07:05:07;3.17;;;1.00;;
49730;SDS011;35622;52.008;5.426;2023-01-16T07:07:34;4.53;;;1.00;;
49730;SDS011;35622;52.008;5.426;2023-01-16T07:10:00;5.23;;;1.13;;
49730;SDS011;35622;52.008;5.426;2023-01-16T07:12:26;4.77;;;0.90;;
49730;SDS011;35622;52.008;5.426;2023-01-16T07:14:51;4.40;;;1.00;;
49730;SDS011;35622;52.008;5.426;2023-01-16T07:17:35;3.90;;;0.93;;
49730;SDS011;35622;52.008;5.426;2023-01-16T07:20:19;2.53;;;1.00;;
49730;SDS011;35622;52.008;5.426;2023-01-16T07:23:13;4.07;;;1.30;;
49730;SDS011;35622;52.008;5.426;2023-01-16T07:25:55;5.23;;;1.00;;
49730;SDS011;35622;52.008;5.426;2023-01-16T07:28:23;2.53;;;0.87;;
49730;SDS011;35622;52.008;5.426;2023-01-16T07:30:49;5.60;;;1.10;;
49730;SDS011;35622;52.008;5.426;2023-01-16T07:33:15;2.97;;;0.80;;
49730;SDS011;35622;52.008;5.426;2023-01-16T07:35:40;4.20;;;0.70;;
49730;SDS011;35622;52.008;5.426;2023-01-16T07:38:06;5.07;;;1.00;;
49730;SDS011;35622;52.008;5.426;2023-01-16T07:40:31;5.10;;;0.90;;
49730;SDS011;35622;52.008;5.426;2023-01-16T07:42:57;3.80;;;0.90;;
49730;SDS011;35622;52.008;5.426;2023-01-16T07:45:23;9.53;;;1.20;;
49730;SDS011;35622;52.008;5.426;2023-01-16T07:47:48;2.83;;;1.00;;
49730;SDS011;35622;52.008;5.426;2023-01-16T07:50:14;3.60;;;1.00;;
49730;SDS011;35622;52.008;5.426;2023-01-16T07:52:41;1.40;;;0.90;;
49730;SDS011;35622;52.008;5.426;2023-01-16T07:55:08;3.80;;;1.00;;
49730;SDS011;35622;52.008;5.426;2023-01-16T07:57:37;2.10;;;1.00;;
49730;SDS011;35622;52.008;5.426;2023-01-16T08:00:07;4.03;;;1.17;;
49730;SDS011;35622;52.008;5.426;2023-01-16T08:02:38;2.07;;;0.80;;
49730;SDS011;35622;52.008;5.426;2023-01-16T08:05:04;2.87;;;0.90;;
49730;SDS011;35622;52.008;5.426;2023-01-16T08:07:30;3.17;;;0.97;;
49730;SDS011;35622;52.008;5.426;2023-01-16T08:09:56;3.40;;;0.97;;
49730;SDS011;35622;52.008;5.426;2023-01-16T08:12:22;3.90;;;0.83;;
49730;SDS011;35622;52.008;5.426;2023-01-16T08:14:47;3.97;;;0.80;;
49730;SDS011;35622;52.008;5.426;2023-01-16T08:17:13;4.37;;;1.00;;
49730;SDS011;35622;52.008;5.426;2023-01-16T08:19:38;3.50;;;1.10;;
49730;SDS011;35622;52.008;5.426;2023-01-16T08:22:04;5.90;;;1.30;;
49730;SDS011;35622;52.008;5.426;2023-01-16T08:24:29;3.83;;;1.20;;
49730;SDS011;35622;52.008;5.426;2023-01-16T08:26:55;4.03;;;1.20;;
49730;SDS011;35622;52.008;5.426;2023-01-16T08:29:21;2.70;;;1.10;;
49730;SDS011;35622;52.008;5.426;2023-01-16T08:31:47;3.30;;;1.10;;
49730;SDS011;35622;52.008;5.426;2023-01-16T08:34:13;3.43;;;1.43;;
49730;SDS011;35622;52.008;5.426;2023-01-16T08:36:39;2.13;;;1.00;;
49730;SDS011;35622;52.008;5.426;2023-01-16T08:39:05;2.97;;;1.37;;
49730;SDS011;35622;52.008;5.426;2023-01-16T08:41:31;3.23;;;1.30;;
49730;SDS011;35622;52.008;5.426;2023-01-16T08:44:15;5.17;;;1.40;;
49730;SDS011;35622;52.008;5.426;2023-01-16T08:47:04;4.00;;;1.60;;
49730;SDS011;35622;52.008;5.426;2023-01-16T08:49:51;4.40;;;1.13;;
49730;SDS011;35622;52.008;5.426;2023-01-16T08:52:36;4.73;;;1.50;;
49730;SDS011;35622;52.008;5.426;2023-01-16T08:55:02;6.57;;;1.60;;
49730;SDS011;35622;52.008;5.426;2023-01-16T08:57:28;2.33;;;1.20;;
49730;SDS011;35622;52.008;5.426;2023-01-16T08:59:55;3.80;;;1.40;;
49730;SDS011;35622;52.008;5.426;2023-01-16T09:02:21;4.50;;;1.60;;
49730;SDS011;35622;52.008;5.426;2023-01-16T09:04:48;3.70;;;1.40;;
49730;SDS011;35622;52.008;5.426;2023-01-16T09:07:14;7.77;;;2.10;;
49730;SDS011;35622;52.008;5.426;2023-01-16T09:09:40;4.50;;;1.80;;
49730;SDS011;35622;52.008;5.426;2023-01-16T09:12:10;5.70;;;2.00;;
49730;SDS011;35622;52.008;5.426;2023-01-16T09:14:55;5.93;;;2.13;;
49730;SDS011;35622;52.008;5.426;2023-01-16T09:17:22;2.97;;;1.90;;
49730;SDS011;35622;52.008;5.426;2023-01-16T09:19:49;6.37;;;2.20;;
49730;SDS011;35622;52.008;5.426;2023-01-16T09:22:14;5.63;;;2.30;;
49730;SDS011;35622;52.008;5.426;2023-01-16T09:24:40;4.17;;;2.13;;
49730;SDS011;35622;52.008;5.426;2023-01-16T09:27:05;5.93;;;2.43;;
49730;SDS011;35622;52.008;5.426;2023-01-16T09:29:31;6.77;;;2.00;;
49730;SDS011;35622;52.008;5.426;2023-01-16T09:31:57;6.90;;;2.47;;
49730;SDS011;35622;52.008;5.426;2023-01-16T09:34:24;6.20;;;2.50;;
49730;SDS011;35622;52.008;5.426;2023-01-16T09:36:49;5.13;;;2.23;;
49730;SDS011;35622;52.008;5.426;2023-01-16T09:39:16;5.43;;;2.20;;
49730;SDS011;35622;52.008;5.426;2023-01-16T09:41:49;4.43;;;2.07;;
49730;SDS011;35622;52.008;5.426;2023-01-16T09:45:37;6.13;;;2.13;;
49730;SDS011;35622;52.008;5.426;2023-01-16T09:47:50;5.70;;;2.17;;
49730;SDS011;35622;52.008;5.426;2023-01-16T09:50:36;5.90;;;2.00;;
49730;SDS011;35622;52.008;5.426;2023-01-16T09:53:11;3.03;;;1.93;;
49730;SDS011;35622;52.008;5.426;2023-01-16T09:56:00;3.33;;;1.60;;
49730;SDS011;35622;52.008;5.426;2023-01-16T09:58:47;3.07;;;1.67;;
49730;SDS011;35622;52.008;5.426;2023-01-16T10:01:32;4.57;;;2.00;;
49730;SDS011;35622;52.008;5.426;2023-01-16T10:04:11;3.57;;;1.87;;
49730;SDS011;35622;52.008;5.426;2023-01-16T10:06:46;5.97;;;1.80;;
49730;SDS011;35622;52.008;5.426;2023-01-16T10:12:40;2.33;;;1.53;;
49730;SDS011;35622;52.008;5.426;2023-01-16T10:15:31;2.87;;;1.50;;
49730;SDS011;35622;52.008;5.426;2023-01-16T10:18:36;3.93;;;1.50;;
49730;SDS011;35622;52.008;5.426;2023-01-16T10:23:35;1.63;;;1.20;;
49730;SDS011;35622;52.008;5.426;2023-01-16T10:26:08;3.63;;;1.30;;
49730;SDS011;35622;52.008;5.426;2023-01-16T10:28:57;4.70;;;1.10;;
49730;SDS011;35622;52.008;5.426;2023-01-16T10:31:47;2.00;;;1.07;;
49730;SDS011;35622;52.008;5.426;2023-01-16T10:34:23;2.80;;;1.00;;
49730;SDS011;35622;52.008;5.426;2023-01-16T10:37:11;1.47;;;0.90;;
49730;SDS011;35622;52.008;5.426;2023-01-16T10:39:37;0.90;;;0.80;;
49730;SDS011;35622;52.008;5.426;2023-01-16T10:44:54;1.47;;;0.90;;
49730;SDS011;35622;52.008;5.426;2023-01-16T10:47:39;1.07;;;0.80;;
49730;SDS011;35622;52.008;5.426;2023-01-16T10:50:24;1.10;;;0.80;;
49730;SDS011;35622;52.008;5.426;2023-01-16T10:52:50;1.07;;;0.80;;
49730;SDS011;35622;52.008;5.426;2023-01-16T10:55:16;1.17;;;0.87;;
49730;SDS011;35622;52.008;5.426;2023-01-16T10:57:46;1.30;;;0.97;;
49730;SDS011;35622;52.008;5.426;2023-01-16T11:00:19;1.87;;;0.90;;
49730;SDS011;35622;52.008;5.426;2023-01-16T11:02:59;1.40;;;0.93;;
49730;SDS011;35622;52.008;5.426;2023-01-16T11:05:34;2.23;;;1.27;;
49730;SDS011;35622;52.008;5.426;2023-01-16T11:08:11;2.70;;;1.05;;
49730;SDS011;35622;52.008;5.426;2023-01-16T11:10:40;1.77;;;1.10;;
49730;SDS011;35622;52.008;5.426;2023-01-16T11:13:23;1.80;;;1.17;;
49730;SDS011;35622;52.008;5.426;2023-01-16T11:19:14;2.97;;;1.20;;
49730;SDS011;35622;52.008;5.426;2023-01-16T11:21:44;2.63;;;1.03;;
49730;SDS011;35622;52.008;5.426;2023-01-16T11:24:22;2.10;;;1.38;;
49730;SDS011;35622;52.008;5.426;2023-01-16T11:26:54;3.70;;;1.40;;
49730;SDS011;35622;52.008;5.426;2023-01-16T11:29:22;1.77;;;1.25;;
49730;SDS011;35622;52.008;5.426;2023-01-16T11:31:55;2.17;;;1.10;;
49730;SDS011;35622;52.008;5.426;2023-01-16T11:34:23;2.15;;;1.00;;
49730;SDS011;35622;52.008;5.426;2023-01-16T11:36:54;1.23;;;0.90;;
49730;SDS011;35622;52.008;5.426;2023-01-16T11:39:22;1.85;;;0.95;;
49730;SDS011;35622;52.008;5.426;2023-01-16T11:41:51;1.45;;;0.90;;
49730;SDS011;35622;52.008;5.426;2023-01-16T11:44:28;1.33;;;0.80;;
49730;SDS011;35622;52.008;5.426;2023-01-16T11:47:17;1.45;;;0.70;;
49730;SDS011;35622;52.008;5.426;2023-01-16T11:49:48;1.48;;;0.85;;
49730;SDS011;35622;52.008;5.426;2023-01-16T11:52:17;1.38;;;0.80;;
49730;SDS011;35622;52.008;5.426;2023-01-16T11:54:55;1.80;;;0.90;;
49730;SDS011;35622;52.008;5.426;2023-01-16T11:57:25;1.70;;;1.08;;
49730;SDS011;35622;52.008;5.426;2023-01-16T12:05:56;0.80;;;0.80;;
49730;SDS011;35622;52.008;5.426;2023-01-16T12:14:08;1.77;;;1.10;;
49730;SDS011;35622;52.008;5.426;2023-01-16T12:22:23;2.63;;;1.10;;
49730;SDS011;35622;52.008;5.426;2023-01-16T12:25:24;1.70;;;1.10;;
49730;SDS011;35622;52.008;5.426;2023-01-16T12:33:55;2.87;;;1.20;;
49730;SDS011;35622;52.008;5.426;2023-01-16T12:45:52;1.83;;;1.30;;
49730;SDS011;35622;52.008;5.426;2023-01-16T13:01:43;1.38;;;0.90;;
49730;SDS011;35622;52.008;5.426;2023-01-16T13:04:18;1.42;;;1.10;;
49730;SDS011;35622;52.008;5.426;2023-01-16T13:06:58;1.90;;;1.17;;
49730;SDS011;35622;52.008;5.426;2023-01-16T13:09:45;2.47;;;1.40;;
49730;SDS011;35622;52.008;5.426;2023-01-16T13:12:38;2.00;;;1.23;;
49730;SDS011;35622;52.008;5.426;2023-01-16T13:15:25;2.17;;;0.98;;
49730;SDS011;35622;52.008;5.426;2023-01-16T13:17:59;1.90;;;1.00;;
49730;SDS011;35622;52.008;5.426;2023-01-16T13:20:26;1.50;;;0.98;;
49730;SDS011;35622;52.008;5.426;2023-01-16T13:23:54;2.22;;;1.00;;
49730;SDS011;35622;52.008;5.426;2023-01-16T13:25:52;1.52;;;1.00;;
49730;SDS011;35622;52.008;5.426;2023-01-16T13:28:33;1.73;;;0.90;;
49730;SDS011;35622;52.008;5.426;2023-01-16T13:33:57;2.30;;;1.10;;
49730;SDS011;35622;52.008;5.426;2023-01-16T13:39:34;1.98;;;1.00;;
49730;SDS011;35622;52.008;5.426;2023-01-16T13:42:01;2.22;;;1.20;;
49730;SDS011;35622;52.008;5.426;2023-01-16T13:44:30;1.77;;;1.10;;
49730;SDS011;35622;52.008;5.426;2023-01-16T13:47:21;1.65;;;1.20;;
49730;SDS011;35622;52.008;5.426;2023-01-16T13:49:51;1.13;;;1.00;;
49730;SDS011;35622;52.008;5.426;2023-01-16T13:52:19;1.13;;;1.02;;
49730;SDS011;35622;52.008;5.426;2023-01-16T13:54:53;2.30;;;1.13;;
49730;SDS011;35622;52.008;5.426;2023-01-16T13:57:22;1.50;;;1.00;;
49730;SDS011;35622;52.008;5.426;2023-01-16T13:59:50;1.20;;;1.08;;
49730;SDS011;35622;52.008;5.426;2023-01-16T14:10:42;1.55;;;1.10;;
49730;SDS011;35622;52.008;5.426;2023-01-16T14:15:56;2.63;;;1.00;;
49730;SDS011;35622;52.008;5.426;2023-01-16T14:19:01;1.67;;;1.17;;
49730;SDS011;35622;52.008;5.426;2023-01-16T14:21:43;2.17;;;1.05;;
49730;SDS011;35622;52.008;5.426;2023-01-16T14:24:36;1.52;;;1.00;;
49730;SDS011;35622;52.008;5.426;2023-01-16T14:30:19;1.70;;;1.10;;
49730;SDS011;35622;52.008;5.426;2023-01-16T14:32:52;1.75;;;1.10;;
49730;SDS011;35622;52.008;5.426;2023-01-16T14:35:22;1.92;;;1.10;;
49730;SDS011;35622;52.008;5.426;2023-01-16T14:41:02;2.33;;;1.60;;
49730;SDS011;35622;52.008;5.426;2023-01-16T14:50:01;2.70;;;1.30;;
49730;SDS011;35622;52.008;5.426;2023-01-16T14:55:57;2.35;;;1.48;;
49730;SDS011;35622;52.008;5.426;2023-01-16T14:58:30;2.60;;;1.38;;
49730;SDS011;35622;52.008;5.426;2023-01-16T15:00:59;2.15;;;1.20;;
49730;SDS011;35622;52.008;5.426;2023-01-16T15:03:45;2.45;;;1.42;;
49730;SDS011;35622;52.008;5.426;2023-01-16T15:06:11;1.97;;;1.50;;
49730;SDS011;35622;52.008;5.426;2023-01-16T15:08:39;2.33;;;1.40;;
49730;SDS011;35622;52.008;5.426;2023-01-16T15:11:08;1.58;;;1.20;;
49730;SDS011;35622;52.008;5.426;2023-01-16T15:14:10;2.05;;;1.40;;
49730;SDS011;35622;52.008;5.426;2023-01-16T15:16:57;3.25;;;1.33;;
49730;SDS011;35622;52.008;5.426;2023-01-16T15:23:18;2.05;;;1.20;;
49730;SDS011;35622;52.008;5.426;2023-01-16T15:31:38;3.53;;;1.77;;
49730;SDS011;35622;52.008;5.426;2023-01-16T15:36:41;3.33;;;1.65;;
49730;SDS011;35622;52.008;5.426;2023-01-16T15:39:14;2.33;;;2.03;;
49730;SDS011;35622;52.008;5.426;2023-01-16T15:41:43;2.50;;;1.70;;
49730;SDS011;35622;52.008;5.426;2023-01-16T15:44:30;3.07;;;1.80;;
49730;SDS011;35622;52.008;5.426;2023-01-16T15:47:31;3.15;;;1.80;;
49730;SDS011;35622;52.008;5.426;2023-01-16T15:50:30;2.13;;;1.92;;
49730;SDS011;35622;52.008;5.426;2023-01-16T15:53:13;3.10;;;2.15;;
49730;SDS011;35622;52.008;5.426;2023-01-16T15:55:41;2.13;;;1.83;;
49730;SDS011;35622;52.008;5.426;2023-01-16T15:58:11;4.93;;;2.15;;
49730;SDS011;35622;52.008;5.426;2023-01-16T16:00:40;4.10;;;2.50;;
49730;SDS011;35622;52.008;5.426;2023-01-16T16:03:13;3.28;;;2.42;;
49730;SDS011;35622;52.008;5.426;2023-01-16T16:05:45;3.28;;;2.30;;
49730;SDS011;35622;52.008;5.426;2023-01-16T16:08:17;4.25;;;2.83;;
49730;SDS011;35622;52.008;5.426;2023-01-16T16:10:45;3.47;;;2.22;;
49730;SDS011;35622;52.008;5.426;2023-01-16T16:13:35;2.72;;;2.20;;
49730;SDS011;35622;52.008;5.426;2023-01-16T16:16:03;5.00;;;2.83;;
49730;SDS011;35622;52.008;5.426;2023-01-16T16:18:58;3.47;;;2.50;;
49730;SDS011;35622;52.008;5.426;2023-01-16T16:21:34;5.97;;;2.70;;
49730;SDS011;35622;52.008;5.426;2023-01-16T16:24:23;4.47;;;2.90;;
49730;SDS011;35622;52.008;5.426;2023-01-16T16:26:48;4.93;;;2.47;;
49730;SDS011;35622;52.008;5.426;2023-01-16T16:29:17;5.25;;;2.78;;
49730;SDS011;35622;52.008;5.426;2023-01-16T16:31:44;3.97;;;2.50;;
49730;SDS011;35622;52.008;5.426;2023-01-16T16:34:15;3.92;;;3.10;;
49730;SDS011;35622;52.008;5.426;2023-01-16T16:36:48;7.43;;;3.17;;
49730;SDS011;35622;52.008;5.426;2023-01-16T16:47:41;4.90;;;3.20;;
49730;SDS011;35622;52.008;5.426;2023-01-16T16:52:52;5.28;;;3.28;;
49730;SDS011;35622;52.008;5.426;2023-01-16T16:55:28;4.63;;;3.00;;
49730;SDS011;35622;52.008;5.426;2023-01-16T16:57:59;3.83;;;2.80;;
49730;SDS011;35622;52.008;5.426;2023-01-16T17:00:27;3.67;;;2.90;;
49730;SDS011;35622;52.008;5.426;2023-01-16T17:03:02;4.68;;;3.28;;
49730;SDS011;35622;52.008;5.426;2023-01-16T17:05:35;5.90;;;3.33;;
49730;SDS011;35622;52.008;5.426;2023-01-16T17:08:01;5.50;;;2.85;;
49730;SDS011;35622;52.008;5.426;2023-01-16T17:10:27;4.03;;;3.20;;
49730;SDS011;35622;52.008;5.426;2023-01-16T17:12:52;4.63;;;3.28;;
49730;SDS011;35622;52.008;5.426;2023-01-16T17:15:20;4.68;;;3.08;;
49730;SDS011;35622;52.008;5.426;2023-01-16T17:17:45;5.82;;;5.13;;
49730;SDS011;35622;52.008;5.426;2023-01-16T17:20:13;5.88;;;4.20;;
49730;SDS011;35622;52.008;5.426;2023-01-16T17:22:41;4.38;;;3.75;;
49730;SDS011;35622;52.008;5.426;2023-01-16T17:25:10;6.80;;;4.22;;
49730;SDS011;35622;52.008;5.426;2023-01-16T17:27:45;5.05;;;4.30;;
49730;SDS011;35622;52.008;5.426;2023-01-16T17:30:12;5.43;;;4.30;;
49730;SDS011;35622;52.008;5.426;2023-01-16T17:32:38;4.70;;;3.80;;
49730;SDS011;35622;52.008;5.426;2023-01-16T17:35:07;36.43;;;28.67;;
49730;SDS011;35622;52.008;5.426;2023-01-16T17:37:40;5.07;;;3.80;;